Time;durP1;ratioP1;P1;durP2;ratioP2;P2;SDS_P1;SDS_P2;PMS_P1;PMS_P2;Temp;Humidity;BMP_temperature;BMP_pressure;BME280_temperature;BME280_humidity;BME280_pressure;Samples;Min_cycle;Max_cycle;Signal;HPM_P1;HPM_P2
2023/01/18 00:00:20;;;;;;;1.08;0.60;;;3.20;99.90;;;;;;5093690;28;20255;-65
2023/01/18 00:02:48;;;;;;;0.80;0.60;;;3.00;99.90;;;;;;5094020;28;20255;-66
2023/01/18 00:05:16;;;;;;;1.33;1.02;;;3.10;99.90;;;;;;5094385;28;20276;-66
2023/01/18 00:07:44;;;;;;;1.80;0.80;;;3.20;99.90;;;;;;5094522;28;20656;-66
2023/01/18 00:10:11;;;;;;;0.90;0.68;;;3.30;99.90;;;;;;5093766;28;20227;-66
2023/01/18 00:12:39;;;;;;;0.93;0.82;;;3.40;99.90;;;;;;5093864;28;20252;-67
2023/01/18 00:15:10;;;;;;;1.25;0.70;;;3.30;99.90;;;;;;5094335;28;20290;-68
2023/01/18 00:17:46;;;;;;;0.73;0.70;;;3.20;99.90;;;;;;5094149;28;20277;-66
2023/01/18 00:20:14;;;;;;;0.70;0.70;;;3.20;99.90;;;;;;5098482;28;20327;-66
2023/01/18 00:22:43;;;;;;;1.13;1.02;;;3.20;99.90;;;;;;5114047;28;20709;-66
2023/01/18 00:25:11;;;;;;;1.10;0.90;;;3.20;99.90;;;;;;5113690;28;20278;-65
2023/01/18 00:27:39;;;;;;;0.80;0.70;;;3.20;99.90;;;;;;5110690;28;20302;-66
2023/01/18 00:30:10;;;;;;;0.80;0.52;;;3.20;99.90;;;;;;5093108;28;20266;-66
2023/01/18 00:32:38;;;;;;;1.00;0.80;;;3.10;99.90;;;;;;5093750;28;20638;-66
2023/01/18 00:35:07;;;;;;;0.70;0.60;;;3.20;99.90;;;;;;5093618;28;20625;-66
2023/01/18 00:37:35;;;;;;;0.70;0.60;;;3.30;99.90;;;;;;5093908;28;20193;-66
2023/01/18 00:40:04;;;;;;;0.88;0.88;;;3.40;99.90;;;;;;5108120;22;20917;-62
2023/01/18 00:45:19;;;;;;;1.00;0.77;;;3.20;99.90;;;;;;5055102;28;20242;-62
2023/01/18 00:47:47;;;;;;;0.90;0.75;;;3.10;99.90;;;;;;5053319;28;20196;-61
2023/01/18 00:50:24;;;;;;;0.90;0.90;;;3.20;99.90;;;;;;5052625;28;20213;-63
2023/01/18 00:52:55;;;;;;;1.25;0.70;;;3.20;99.90;;;;;;5053060;28;20200;-63
2023/01/18 00:55:24;;;;;;;1.55;0.70;;;3.10;99.90;;;;;;5053382;28;20196;-63
2023/01/18 00:57:52;;;;;;;1.67;1.02;;;3.00;99.90;;;;;;5062055;28;20291;-63
2023/01/18 01:00:25;;;;;;;1.35;1.05;;;3.00;99.90;;;;;;5072250;28;20240;-62
2023/01/18 01:02:53;;;;;;;0.80;0.60;;;3.00;99.90;;;;;;5073545;28;20231;-63
2023/01/18 01:08:15;;;;;;;0.90;0.60;;;3.00;99.90;;;;;;5073467;28;20274;-63
2023/01/18 01:10:45;;;;;;;0.80;0.80;;;2.90;99.90;;;;;;5072362;28;20228;-62
2023/01/18 01:27:07;;;;;;;0.60;0.57;;;2.60;99.90;;;;;;5072399;28;20226;-62
2023/01/18 01:29:34;;;;;;;0.80;0.75;;;2.50;99.90;;;;;;5071816;28;20306;-61
2023/01/18 01:32:04;;;;;;;0.70;0.70;;;2.50;99.90;;;;;;5072876;28;20200;-62
2023/01/18 01:34:32;;;;;;;0.70;0.60;;;2.50;99.90;;;;;;5072794;28;20287;-62
2023/01/18 01:37:00;;;;;;;1.00;0.88;;;2.70;99.90;;;;;;5072670;28;20189;-62
2023/01/18 01:39:28;;;;;;;0.90;0.80;;;2.60;99.90;;;;;;5072333;28;20223;-61
2023/01/18 01:41:56;;;;;;;1.00;0.75;;;2.70;99.90;;;;;;5072287;28;20847;-62
2023/01/18 01:44:45;;;;;;;0.80;0.50;;;2.60;99.90;;;;;;5072804;28;20288;-62
2023/01/18 01:47:27;;;;;;;0.90;0.70;;;2.40;99.90;;;;;;5072408;28;20222;-62
2023/01/18 01:50:00;;;;;;;1.23;0.80;;;2.50;99.90;;;;;;5071759;28;20235;-61
2023/01/18 01:52:32;;;;;;;0.93;0.65;;;2.60;99.90;;;;;;5072900;28;20202;-62
2023/01/18 01:55:05;;;;;;;0.90;0.68;;;2.70;99.90;;;;;;5072684;28;20222;-62
2023/01/18 01:57:37;;;;;;;0.80;0.77;;;2.70;99.90;;;;;;5072618;28;20235;-62
2023/01/18 02:00:10;;;;;;;1.55;1.45;;;2.60;99.90;;;;;;5071675;28;20211;-61
2023/01/18 02:02:41;;;;;;;1.48;0.68;;;2.80;99.90;;;;;;5072322;28;20223;-62
2023/01/18 02:05:12;;;;;;;0.80;0.60;;;2.60;99.90;;;;;;5072076;28;20192;-62
2023/01/18 02:07:40;;;;;;;1.08;0.65;;;2.70;99.90;;;;;;5072296;28;20268;-61
2023/01/18 02:10:09;;;;;;;0.88;0.70;;;2.80;99.90;;;;;;5071559;28;20214;-61
2023/01/18 02:12:39;;;;;;;0.70;0.50;;;2.90;99.90;;;;;;5071315;28;20235;-61
2023/01/18 02:15:08;;;;;;;1.02;0.88;;;3.00;99.90;;;;;;5071777;28;20262;-62
2023/01/18 02:17:57;;;;;;;0.70;0.65;;;2.80;99.90;;;;;;5053562;28;20285;-62
2023/01/18 02:21:10;;;;;;;0.70;0.50;;;2.90;99.90;;;;;;5057221;28;20261;-62
2023/01/18 02:24:09;;;;;;;1.15;0.50;;;2.60;99.90;;;;;;5071320;28;20196;-62
2023/01/18 02:26:56;;;;;;;1.60;1.10;;;2.70;99.90;;;;;;5052052;28;20292;-62
2023/01/18 02:29:38;;;;;;;0.60;0.60;;;2.70;99.90;;;;;;5069597;28;20216;-63
2023/01/18 02:32:17;;;;;;;0.60;0.50;;;2.60;99.90;;;;;;5071674;28;20206;-63
2023/01/18 02:34:49;;;;;;;1.02;0.70;;;2.70;99.90;;;;;;5072160;28;20282;-62
2023/01/18 02:37:25;;;;;;;1.70;0.95;;;2.80;99.90;;;;;;5072087;28;20268;-62
2023/01/18 02:40:04;;;;;;;1.33;1.23;;;2.60;99.90;;;;;;5070443;28;20235;-62
2023/01/18 02:48:15;;;;;;;1.33;0.68;;;2.80;99.90;;;;;;5071277;28;20255;-62
2023/01/18 02:50:43;;;;;;;0.70;0.70;;;2.80;99.90;;;;;;5070553;28;20221;-62
2023/01/18 02:53:13;;;;;;;1.08;0.65;;;2.70;99.90;;;;;;5071094;28;20196;-62
2023/01/18 02:55:46;;;;;;;0.65;0.65;;;2.60;99.90;;;;;;5071568;28;20370;-63
2023/01/18 02:58:20;;;;;;;1.00;0.70;;;2.80;99.90;;;;;;5071407;28;20279;-62
2023/01/18 03:00:55;;;;;;;0.90;0.70;;;3.00;99.90;;;;;;5070747;28;20215;-62
2023/01/18 03:03:25;;;;;;;0.95;0.85;;;2.90;99.90;;;;;;5071123;28;20196;-62
2023/01/18 03:05:57;;;;;;;0.80;0.60;;;2.90;99.90;;;;;;5071375;28;20198;-62
2023/01/18 03:08:32;;;;;;;0.60;0.50;;;2.90;99.90;;;;;;5071473;28;20302;-62
2023/01/18 03:11:02;;;;;;;0.90;0.70;;;2.90;99.90;;;;;;5070596;28;20213;-62
2023/01/18 03:13:41;;;;;;;0.82;0.77;;;2.80;99.90;;;;;;5070887;28;20295;-62
2023/01/18 03:16:18;;;;;;;0.70;0.60;;;2.80;99.90;;;;;;5071448;28;20203;-62
2023/01/18 03:19:00;;;;;;;0.70;0.70;;;2.90;99.90;;;;;;5071361;28;20191;-62
2023/01/18 03:21:37;;;;;;;0.80;0.60;;;3.00;99.90;;;;;;5070366;28;20818;-62
2023/01/18 03:24:07;;;;;;;0.80;0.70;;;3.10;99.90;;;;;;5070910;28;20236;-62
2023/01/18 03:26:39;;;;;;;3.42;0.60;;;3.10;99.90;;;;;;5074889;28;20219;-63
2023/01/18 03:34:51;;;;;;;1.00;0.70;;;3.20;99.90;;;;;;5074607;28;20283;-62
2023/01/18 03:37:25;;;;;;;0.65;0.50;;;3.20;99.90;;;;;;5074665;28;20253;-62
2023/01/18 03:39:56;;;;;;;0.70;0.68;;;3.10;99.90;;;;;;5073648;28;20322;-62
2023/01/18 03:42:27;;;;;;;1.85;0.70;;;3.10;99.90;;;;;;5074493;28;20252;-62
2023/01/18 03:45:03;;;;;;;0.80;0.60;;;3.30;99.90;;;;;;5074120;28;20283;-63
2023/01/18 03:47:32;;;;;;;0.70;0.63;;;3.30;99.90;;;;;;5074339;28;20246;-62
2023/01/18 03:50:00;;;;;;;1.15;0.60;;;3.40;99.90;;;;;;5073540;28;20219;-63
2023/01/18 03:52:36;;;;;;;0.70;0.60;;;3.60;99.90;;;;;;5074365;28;20223;-63
2023/01/18 03:55:11;;;;;;;0.65;0.60;;;3.70;99.90;;;;;;5074171;28;20205;-63
2023/01/18 03:57:44;;;;;;;0.60;0.60;;;3.70;99.90;;;;;;5074140;28;20884;-63
2023/01/18 04:00:14;;;;;;;1.15;0.68;;;3.70;99.90;;;;;;5073497;28;20587;-62
2023/01/18 04:02:45;;;;;;;0.60;0.60;;;3.70;99.90;;;;;;5074247;28;20279;-64
2023/01/18 04:05:13;;;;;;;1.50;0.70;;;3.50;99.90;;;;;;5074093;28;20196;-63
2023/01/18 04:07:41;;;;;;;0.70;0.70;;;3.40;99.90;;;;;;5073794;28;20224;-63
2023/01/18 04:10:10;;;;;;;0.65;0.60;;;3.60;99.90;;;;;;5073387;28;20302;-62
2023/01/18 04:12:38;;;;;;;0.68;0.63;;;3.70;99.90;;;;;;5074659;28;20282;-63
2023/01/18 04:15:07;;;;;;;0.70;0.60;;;3.50;99.90;;;;;;5074388;28;20223;-63
2023/01/18 04:17:35;;;;;;;0.52;0.40;;;3.20;99.90;;;;;;5074257;28;20192;-62
2023/01/18 04:20:05;;;;;;;1.13;0.85;;;3.30;99.90;;;;;;5072894;28;20211;-62
2023/01/18 04:22:33;;;;;;;0.98;0.80;;;3.30;99.90;;;;;;5074031;28;20228;-63
2023/01/18 04:25:01;;;;;;;1.15;0.60;;;3.40;99.90;;;;;;5073469;28;20291;-63
2023/01/18 04:27:29;;;;;;;0.70;0.57;;;3.50;99.90;;;;;;5073369;28;20211;-63
2023/01/18 04:29:57;;;;;;;1.00;0.80;;;3.60;99.90;;;;;;5072606;28;20385;-63
2023/01/18 04:32:25;;;;;;;0.60;0.40;;;3.50;99.90;;;;;;5073566;28;20237;-62
2023/01/18 04:34:53;;;;;;;0.90;0.70;;;3.40;99.90;;;;;;5072994;28;20199;-62
2023/01/18 04:37:29;;;;;;;0.70;0.60;;;3.40;99.90;;;;;;5073710;28;20716;-63
2023/01/18 04:39:58;;;;;;;0.70;0.50;;;3.50;99.90;;;;;;5072400;28;20307;-62
2023/01/18 04:42:25;;;;;;;1.67;0.82;;;3.50;99.90;;;;;;5073364;28;20199;-62
2023/01/18 04:44:53;;;;;;;0.60;0.50;;;3.20;99.90;;;;;;5073342;28;20215;-63
2023/01/18 04:47:21;;;;;;;0.75;0.70;;;3.10;99.90;;;;;;5073167;28;20217;-63
2023/01/18 04:49:49;;;;;;;0.60;0.50;;;3.10;99.90;;;;;;5072633;28;20243;-62
2023/01/18 04:52:17;;;;;;;0.60;0.50;;;3.10;99.90;;;;;;5073608;28;20286;-62
2023/01/18 04:54:47;;;;;;;0.60;0.50;;;2.80;99.90;;;;;;5073288;28;20192;-63
2023/01/18 04:57:15;;;;;;;0.65;0.50;;;2.80;99.90;;;;;;5073346;28;20205;-63
2023/01/18 04:59:44;;;;;;;0.73;0.50;;;3.00;99.90;;;;;;5071894;28;20212;-62
2023/01/18 05:02:14;;;;;;;0.60;0.50;;;3.10;99.90;;;;;;5073406;28;20191;-63
2023/01/18 05:04:43;;;;;;;1.70;0.55;;;3.20;99.90;;;;;;5073392;28;20548;-63
2023/01/18 05:07:11;;;;;;;1.85;0.57;;;3.30;99.90;;;;;;5073234;28;20655;-63
2023/01/18 05:09:39;;;;;;;0.70;0.70;;;3.30;99.90;;;;;;5072372;28;20302;-62
2023/01/18 05:12:08;;;;;;;0.70;0.60;;;3.20;99.90;;;;;;5072647;28;20235;-62
2023/01/18 05:14:36;;;;;;;0.60;0.40;;;3.20;99.90;;;;;;5072735;28;20263;-62
2023/01/18 05:17:04;;;;;;;0.60;0.60;;;3.20;99.90;;;;;;5072869;28;20195;-61
2023/01/18 05:19:32;;;;;;;0.60;0.40;;;3.00;99.90;;;;;;5072141;28;20220;-62
2023/01/18 05:21:59;;;;;;;0.90;0.60;;;3.00;99.90;;;;;;5073141;28;20291;-62
2023/01/18 05:24:27;;;;;;;0.70;0.50;;;3.10;99.90;;;;;;5073041;28;20257;-63
2023/01/18 05:26:57;;;;;;;0.80;0.60;;;3.30;99.90;;;;;;5060175;28;20212;-62
2023/01/18 05:29:26;;;;;;;0.88;0.70;;;3.50;99.90;;;;;;5072775;28;20724;-62
2023/01/18 05:31:54;;;;;;;0.70;0.60;;;3.40;99.90;;;;;;5062418;28;20287;-62
2023/01/18 05:34:22;;;;;;;0.70;0.50;;;3.40;99.90;;;;;;5054897;28;20200;-63
2023/01/18 05:36:50;;;;;;;0.60;0.40;;;3.40;99.90;;;;;;5063757;28;20280;-62
2023/01/18 05:39:17;;;;;;;0.60;0.47;;;3.10;99.90;;;;;;5063754;28;20274;-61
2023/01/18 05:41:45;;;;;;;0.60;0.50;;;3.40;99.90;;;;;;5053520;28;20723;-62
2023/01/18 05:44:13;;;;;;;0.60;0.40;;;3.40;99.90;;;;;;5060176;28;20291;-62
2023/01/18 05:46:42;;;;;;;0.63;0.40;;;3.60;99.90;;;;;;5061981;28;20660;-62
2023/01/18 05:49:10;;;;;;;0.60;0.50;;;3.60;99.90;;;;;;5066673;28;20310;-62
2023/01/18 05:51:38;;;;;;;0.68;0.50;;;3.70;99.90;;;;;;5054121;28;20290;-64
2023/01/18 05:54:06;;;;;;;0.60;0.45;;;3.70;99.90;;;;;;5063700;28;20203;-64
2023/01/18 05:56:34;;;;;;;1.02;0.70;;;3.40;99.90;;;;;;5069751;28;20206;-65
2023/01/18 05:59:02;;;;;;;0.60;0.50;;;2.90;99.90;;;;;;5069867;28;20202;-65
2023/01/18 06:01:30;;;;;;;0.63;0.57;;;2.80;99.90;;;;;;5061634;28;20208;-65
2023/01/18 06:03:59;;;;;;;0.80;0.80;;;2.70;99.90;;;;;;5066423;28;20208;-65
2023/01/18 06:06:27;;;;;;;0.68;0.68;;;2.50;99.90;;;;;;5062111;28;20206;-64
2023/01/18 06:08:55;;;;;;;0.60;0.45;;;2.40;99.90;;;;;;5065157;28;20406;-65
2023/01/18 06:11:23;;;;;;;1.23;0.68;;;2.40;99.90;;;;;;5066924;28;20222;-64
2023/01/18 06:13:51;;;;;;;0.60;0.50;;;2.30;99.90;;;;;;5066940;28;20206;-64
2023/01/18 06:16:19;;;;;;;0.60;0.50;;;2.30;99.90;;;;;;5066641;28;20235;-64
2023/01/18 06:18:46;;;;;;;0.57;0.45;;;2.40;99.90;;;;;;5065925;28;20200;-65
2023/01/18 06:21:16;;;;;;;0.50;0.40;;;2.30;99.90;;;;;;5065577;28;20590;-65
2023/01/18 06:23:44;;;;;;;0.60;0.40;;;2.30;99.90;;;;;;5065025;28;20276;-64
2023/01/18 06:26:12;;;;;;;0.60;0.40;;;2.30;99.90;;;;;;5066907;28;20227;-65
2023/01/18 06:28:41;;;;;;;0.70;0.60;;;2.20;99.90;;;;;;5062234;28;20231;-65
2023/01/18 06:31:10;;;;;;;0.60;0.60;;;2.20;99.90;;;;;;5063462;28;20227;-64
2023/01/18 06:33:38;;;;;;;0.60;0.50;;;2.20;99.90;;;;;;5067656;28;20199;-65
2023/01/18 06:36:06;;;;;;;0.60;0.40;;;2.10;99.90;;;;;;5068509;28;20229;-65
2023/01/18 06:38:36;;;;;;;0.80;0.52;;;2.10;99.90;;;;;;5065254;28;20817;-64
2023/01/18 06:41:03;;;;;;;0.63;0.50;;;2.10;99.90;;;;;;5083861;22;20323;-67
2023/01/18 06:43:31;;;;;;;0.60;0.50;;;2.00;99.90;;;;;;5068798;28;20242;-64
2023/01/18 06:45:59;;;;;;;0.70;0.60;;;2.00;99.90;;;;;;5066164;28;20202;-64
2023/01/18 06:48:28;;;;;;;1.95;1.67;;;2.00;99.90;;;;;;5063902;28;20734;-64
2023/01/18 06:50:57;;;;;;;0.63;0.52;;;2.00;99.90;;;;;;5069190;28;20289;-64
2023/01/18 06:53:25;;;;;;;0.60;0.50;;;2.00;99.90;;;;;;5070452;28;20227;-64
2023/01/18 06:55:56;;;;;;;0.60;0.50;;;2.00;99.90;;;;;;5070340;28;20273;-64
2023/01/18 06:58:25;;;;;;;0.60;0.40;;;1.90;99.90;;;;;;5069854;28;20237;-63
2023/01/18 07:00:54;;;;;;;1.45;0.50;;;1.80;99.90;;;;;;5069309;28;20247;-66
2023/01/18 07:03:22;;;;;;;0.60;0.50;;;1.80;99.90;;;;;;5069871;28;20199;-66
2023/01/18 07:05:53;;;;;;;1.13;0.60;;;1.70;99.90;;;;;;5052313;28;20573;-64
2023/01/18 07:08:23;;;;;;;1.15;0.60;;;1.80;99.90;;;;;;5052378;28;20270;-64
2023/01/18 07:10:54;;;;;;;0.90;0.70;;;1.80;99.90;;;;;;5069096;28;20294;-64
2023/01/18 07:13:25;;;;;;;0.80;0.50;;;1.80;99.90;;;;;;5051113;28;20306;-65
2023/01/18 07:16:03;;;;;;;0.60;0.57;;;1.80;99.90;;;;;;5066631;28;20203;-65
2023/01/18 07:18:32;;;;;;;0.70;0.50;;;1.60;99.90;;;;;;5060695;28;20201;-64
2023/01/18 07:21:02;;;;;;;0.88;0.80;;;1.60;99.90;;;;;;5064448;28;20743;-64
2023/01/18 07:23:31;;;;;;;1.45;1.20;;;1.60;99.90;;;;;;5070819;28;20200;-64
2023/01/18 07:26:01;;;;;;;0.82;0.70;;;1.50;99.90;;;;;;5071059;28;20215;-65
2023/01/18 07:28:32;;;;;;;0.70;0.52;;;1.50;99.90;;;;;;5052431;28;20583;-65
2023/01/18 07:31:00;;;;;;;1.15;0.63;;;1.40;99.90;;;;;;5055049;28;20724;-64
2023/01/18 07:33:29;;;;;;;0.70;0.70;;;1.40;99.90;;;;;;5051094;28;20196;-64
2023/01/18 07:35:57;;;;;;;0.80;0.80;;;1.40;99.90;;;;;;5050743;28;20576;-64
2023/01/18 07:38:27;;;;;;;1.35;1.25;;;1.40;99.90;;;;;;5033149;28;20199;-64
2023/01/18 07:41:03;;;;;;;1.00;0.90;;;1.40;99.90;;;;;;5049911;28;20794;-64
2023/01/18 07:43:33;;;;;;;0.73;0.65;;;1.40;99.90;;;;;;5049864;28;20254;-64
2023/01/18 07:46:02;;;;;;;0.82;0.60;;;1.40;99.90;;;;;;5050792;28;20191;-64
2023/01/18 07:48:32;;;;;;;0.70;0.70;;;1.40;99.90;;;;;;5050722;28;20211;-64
2023/01/18 07:51:01;;;;;;;0.60;0.50;;;1.40;99.90;;;;;;5049696;28;20656;-64
2023/01/18 07:53:31;;;;;;;1.20;0.93;;;1.30;99.90;;;;;;5050644;28;20238;-64
2023/01/18 07:56:01;;;;;;;0.98;0.55;;;1.30;99.90;;;;;;5050415;28;20806;-64
2023/01/18 07:58:32;;;;;;;0.90;0.90;;;1.30;99.90;;;;;;5063183;28;20206;-64
2023/01/18 08:01:04;;;;;;;0.70;0.50;;;1.30;99.90;;;;;;5051892;28;20216;-64
2023/01/18 08:03:33;;;;;;;0.60;0.45;;;1.20;99.90;;;;;;5050610;28;20622;-64
2023/01/18 08:06:04;;;;;;;1.13;1.00;;;1.20;99.90;;;;;;5032390;28;20200;-64
2023/01/18 08:08:33;;;;;;;1.20;1.08;;;1.20;99.90;;;;;;5032573;28;20188;-64
2023/01/18 08:11:04;;;;;;;0.90;0.60;;;1.20;99.90;;;;;;5051267;28;20228;-64
2023/01/18 08:13:32;;;;;;;0.60;0.50;;;1.20;99.90;;;;;;5053888;28;20203;-64
2023/01/18 08:16:01;;;;;;;1.13;0.50;;;1.20;99.90;;;;;;5054195;28;20207;-64
2023/01/18 08:18:29;;;;;;;0.70;0.68;;;1.20;99.90;;;;;;5054009;28;20188;-64
2023/01/18 08:20:59;;;;;;;0.70;0.60;;;1.30;99.90;;;;;;5052789;28;20223;-64
2023/01/18 08:23:27;;;;;;;0.98;0.50;;;1.40;99.90;;;;;;5053880;28;20548;-64
2023/01/18 08:26:02;;;;;;;1.15;0.82;;;1.50;99.90;;;;;;5053905;28;20206;-64
2023/01/18 08:28:31;;;;;;;0.60;0.60;;;1.60;99.90;;;;;;5048227;28;20196;-64
2023/01/18 08:31:11;;;;;;;1.10;0.68;;;1.60;99.90;;;;;;5057539;28;20601;-64
2023/01/18 08:33:41;;;;;;;0.80;0.70;;;1.60;99.90;;;;;;5053742;28;20227;-64
2023/01/18 08:36:11;;;;;;;0.60;0.50;;;1.60;99.90;;;;;;5053703;28;20278;-64
2023/01/18 08:38:40;;;;;;;0.70;0.70;;;1.70;99.90;;;;;;5053342;28;20231;-64
2023/01/18 08:41:10;;;;;;;0.60;0.50;;;1.70;99.90;;;;;;5052329;28;20331;-64
2023/01/18 08:43:51;;;;;;;1.08;0.60;;;1.80;99.90;;;;;;5053093;28;20200;-64
2023/01/18 08:46:28;;;;;;;1.42;0.90;;;1.80;99.90;;;;;;5053153;28;20230;-64
2023/01/18 08:48:57;;;;;;;1.10;0.93;;;1.80;99.90;;;;;;5052847;28;20199;-64
2023/01/18 08:51:32;;;;;;;0.98;0.77;;;1.80;99.90;;;;;;5051808;28;20600;-64
2023/01/18 08:54:01;;;;;;;0.65;0.60;;;1.90;99.90;;;;;;5053093;28;20628;-64
2023/01/18 08:56:37;;;;;;;0.70;0.60;;;1.90;99.90;;;;;;5032479;28;20666;-64
2023/01/18 08:59:12;;;;;;;0.80;0.60;;;1.90;99.90;;;;;;5069483;28;20680;-64
2023/01/18 09:01:42;;;;;;;0.85;0.70;;;1.90;99.90;;;;;;5054222;28;20231;-64
2023/01/18 09:04:13;;;;;;;0.90;0.70;;;2.00;99.90;;;;;;5073045;28;20684;-64
2023/01/18 09:06:59;;;;;;;1.00;1.00;;;2.10;99.90;;;;;;5072984;28;20207;-64
2023/01/18 09:09:49;;;;;;;0.80;0.65;;;2.20;99.90;;;;;;5071644;28;20220;-64
2023/01/18 09:12:25;;;;;;;0.80;0.70;;;2.20;99.90;;;;;;5069599;28;20285;-65
2023/01/18 09:15:14;;;;;;;0.60;0.50;;;2.20;99.90;;;;;;5072785;28;20233;-64
2023/01/18 09:17:44;;;;;;;0.60;0.50;;;2.10;99.90;;;;;;5054710;28;20255;-64
2023/01/18 09:20:14;;;;;;;0.93;0.68;;;2.20;99.90;;;;;;5053429;28;20264;-64
2023/01/18 09:22:46;;;;;;;0.80;0.68;;;2.20;99.90;;;;;;5072732;28;20205;-64
2023/01/18 09:25:17;;;;;;;0.90;0.70;;;2.20;99.90;;;;;;5072503;28;20203;-65
2023/01/18 09:27:46;;;;;;;1.02;0.85;;;2.30;99.90;;;;;;5072420;28;20280;-64
2023/01/18 09:30:15;;;;;;;1.02;0.90;;;2.40;99.90;;;;;;5063439;28;20217;-64
2023/01/18 09:32:43;;;;;;;0.90;0.70;;;2.50;99.90;;;;;;5053382;28;20193;-65
2023/01/18 09:35:16;;;;;;;0.80;0.63;;;2.50;99.90;;;;;;5053539;28;20386;-63
2023/01/18 09:37:45;;;;;;;0.60;0.60;;;2.60;99.90;;;;;;5052373;28;20192;-64
2023/01/18 09:40:16;;;;;;;0.98;0.80;;;2.70;99.90;;;;;;5051385;28;20770;-65
2023/01/18 09:42:46;;;;;;;0.70;0.63;;;2.70;99.90;;;;;;5052401;28;20224;-64
2023/01/18 09:45:24;;;;;;;2.30;0.90;;;2.60;99.90;;;;;;5052271;28;20227;-64
2023/01/18 09:47:59;;;;;;;0.88;0.55;;;2.80;99.90;;;;;;5052346;28;20254;-64
2023/01/18 09:50:28;;;;;;;0.60;0.40;;;2.80;99.90;;;;;;5051358;28;20236;-66
2023/01/18 09:53:04;;;;;;;0.60;0.50;;;2.80;99.90;;;;;;5052021;28;20217;-64
2023/01/18 09:55:45;;;;;;;0.77;0.77;;;2.90;99.90;;;;;;5052051;28;20226;-64
2023/01/18 09:58:34;;;;;;;0.90;0.60;;;3.10;99.90;;;;;;5062219;28;20191;-64
2023/01/18 10:01:06;;;;;;;0.73;0.60;;;3.10;99.90;;;;;;5056060;28;20693;-64
2023/01/18 10:03:45;;;;;;;1.00;0.80;;;3.20;99.90;;;;;;5052092;28;20188;-64
2023/01/18 10:06:21;;;;;;;1.30;1.00;;;3.30;99.90;;;;;;5052144;28;20195;-64
2023/01/18 10:08:55;;;;;;;1.98;1.73;;;3.50;99.90;;;;;;5052046;28;20593;-65
2023/01/18 10:11:30;;;;;;;1.48;1.00;;;3.70;99.90;;;;;;5050773;28;20286;-64
2023/01/18 10:14:05;;;;;;;3.85;1.70;;;3.60;99.90;;;;;;5051690;28;20191;-64
2023/01/18 10:16:34;;;;;;;1.20;1.10;;;3.70;99.90;;;;;;5051356;28;20195;-65
2023/01/18 10:19:02;;;;;;;0.90;0.80;;;3.80;99.90;;;;;;5051617;28;20224;-64
2023/01/18 10:21:42;;;;;;;1.20;1.10;;;4.00;99.90;;;;;;5050675;28;20257;-64
2023/01/18 10:24:29;;;;;;;1.25;0.70;;;4.20;99.90;;;;;;5051561;28;20563;-64
2023/01/18 10:27:18;;;;;;;0.70;0.60;;;4.40;99.90;;;;;;5051442;28;20193;-65
2023/01/18 10:30:01;;;;;;;0.93;0.93;;;4.60;99.90;;;;;;5053078;28;20221;-65
2023/01/18 10:32:32;;;;;;;2.10;1.42;;;4.90;99.90;;;;;;5071200;28;20217;-65
2023/01/18 10:35:02;;;;;;;0.90;0.65;;;4.90;99.90;;;;;;5072438;28;20606;-64
2023/01/18 10:37:37;;;;;;;2.20;1.20;;;4.80;99.90;;;;;;5071325;28;20192;-65
2023/01/18 10:40:09;;;;;;;1.30;1.10;;;4.90;99.90;;;;;;5070510;28;20243;-65
2023/01/18 10:42:44;;;;;;;0.90;0.90;;;4.80;99.90;;;;;;5071294;28;20207;-64
2023/01/18 10:45:18;;;;;;;0.60;0.60;;;4.90;99.90;;;;;;5071233;28;20200;-65
2023/01/18 10:47:47;;;;;;;0.90;0.60;;;5.20;99.90;;;;;;5071755;28;20188;-65
2023/01/18 10:50:17;;;;;;;1.27;0.80;;;5.50;99.90;;;;;;5070493;28;20683;-65
2023/01/18 10:52:45;;;;;;;1.25;1.13;;;5.60;99.90;;;;;;5071039;28;20219;-65
2023/01/18 10:55:16;;;;;;;1.08;0.80;;;5.70;99.90;;;;;;5071364;28;20192;-65
2023/01/18 10:57:48;;;;;;;0.85;0.80;;;5.70;99.90;;;;;;5071116;28;20203;-65
2023/01/18 11:00:26;;;;;;;0.70;0.60;;;5.90;99.90;;;;;;5061357;28;20268;-65
2023/01/18 11:02:55;;;;;;;1.00;0.90;;;6.00;99.90;;;;;;5051042;28;20223;-65
2023/01/18 11:05:29;;;;;;;0.98;0.80;;;5.90;99.90;;;;;;5050932;28;20701;-65
2023/01/18 11:08:23;;;;;;;1.00;0.80;;;5.80;99.90;;;;;;5051341;28;20202;-65
2023/01/18 11:11:02;;;;;;;0.90;0.75;;;5.70;99.90;;;;;;5050296;28;20544;-65
2023/01/18 11:13:32;;;;;;;1.13;0.88;;;5.60;99.90;;;;;;5050791;28;20550;-65
2023/01/18 11:16:12;;;;;;;0.60;0.55;;;5.50;99.90;;;;;;5050910;28;20569;-65
2023/01/18 11:18:56;;;;;;;0.85;0.60;;;5.70;99.90;;;;;;5050820;28;20717;-65
2023/01/18 11:21:30;;;;;;;0.70;0.52;;;5.80;99.90;;;;;;5050539;28;20213;-65
2023/01/18 11:24:05;;;;;;;0.70;0.65;;;5.80;99.90;;;;;;5051235;28;20187;-66
2023/01/18 11:26:34;;;;;;;0.65;0.60;;;6.10;99.90;;;;;;5051057;28;20281;-66
2023/01/18 11:29:04;;;;;;;1.00;0.90;;;6.20;99.90;;;;;;5064502;28;20633;-65
2023/01/18 11:31:45;;;;;;;1.45;1.13;;;6.10;99.90;;;;;;5068714;28;20221;-66
2023/01/18 11:34:24;;;;;;;0.90;0.88;;;6.00;99.90;;;;;;5054067;28;20201;-65
2023/01/18 11:36:52;;;;;;;0.70;0.68;;;5.90;99.90;;;;;;5050816;28;20198;-65
2023/01/18 11:39:29;;;;;;;0.70;0.70;;;5.80;99.90;;;;;;5050922;28;20207;-65
2023/01/18 11:42:20;;;;;;;1.08;0.70;;;5.70;99.90;;;;;;5049989;28;20233;-66
2023/01/18 11:45:14;;;;;;;0.80;0.70;;;6.00;99.90;;;;;;5050402;28;20607;-65
2023/01/18 11:47:55;;;;;;;0.70;0.70;;;6.00;99.90;;;;;;5054571;28;20627;-65
2023/01/18 11:50:33;;;;;;;1.30;1.05;;;6.00;99.90;;;;;;5053774;28;20228;-65
2023/01/18 11:53:12;;;;;;;1.80;1.13;;;5.90;99.90;;;;;;5054259;28;20745;-65
2023/01/18 11:55:46;;;;;;;1.63;1.25;;;5.70;99.90;;;;;;5054596;28;20289;-65
2023/01/18 11:58:27;;;;;;;1.20;1.10;;;5.40;99.90;;;;;;5055485;28;20193;-65
2023/01/18 12:01:05;;;;;;;1.60;1.50;;;5.10;99.90;;;;;;5067813;28;20698;-65
2023/01/18 12:03:49;;;;;;;4.22;1.30;;;5.00;99.90;;;;;;5054094;28;20734;-65
2023/01/18 12:06:28;;;;;;;0.98;0.90;;;5.20;99.90;;;;;;5054322;28;20225;-65
2023/01/18 12:09:09;;;;;;;2.17;1.45;;;5.20;99.90;;;;;;5053954;28;20194;-65
2023/01/18 12:11:48;;;;;;;2.05;1.00;;;5.20;99.90;;;;;;5053445;28;20694;-65
2023/01/18 12:14:30;;;;;;;1.90;1.70;;;5.10;99.90;;;;;;5054014;28;20192;-65
2023/01/18 12:17:12;;;;;;;1.42;1.30;;;5.10;99.90;;;;;;5054074;28;20551;-65
2023/01/18 12:19:58;;;;;;;2.88;1.95;;;5.20;99.90;;;;;;5053346;28;20646;-65
2023/01/18 12:22:57;;;;;;;1.20;1.00;;;5.20;99.90;;;;;;5053902;28;20274;-65
2023/01/18 12:25:43;;;;;;;1.70;1.40;;;5.10;99.90;;;;;;5054056;28;20232;-65
2023/01/18 12:28:22;;;;;;;2.22;1.23;;;5.00;99.90;;;;;;5054727;28;20241;-65
2023/01/18 12:30:58;;;;;;;2.17;1.30;;;4.80;99.90;;;;;;5066516;28;20486;-65
2023/01/18 12:33:42;;;;;;;1.65;1.55;;;4.80;99.90;;;;;;5073848;28;20233;-65
2023/01/18 12:36:34;;;;;;;1.30;1.20;;;4.90;99.90;;;;;;5073793;28;20238;-66
2023/01/18 12:39:10;;;;;;;1.50;1.40;;;4.90;99.90;;;;;;5073307;28;20305;-66
2023/01/18 12:41:47;;;;;;;1.33;1.20;;;5.00;99.90;;;;;;5155664;22;20315;-66
2023/01/18 12:44:49;;;;;;;1.40;1.17;;;4.80;99.90;;;;;;5053220;28;20291;-67
2023/01/18 12:47:31;;;;;;;1.80;1.45;;;4.70;99.90;;;;;;5049809;28;20208;-67
2023/01/18 12:50:02;;;;;;;1.00;0.90;;;4.60;99.90;;;;;;5052690;28;20277;-67
2023/01/18 12:52:35;;;;;;;2.85;1.25;;;4.50;99.90;;;;;;5033373;28;20253;-67
2023/01/18 12:55:07;;;;;;;1.20;1.10;;;4.50;99.90;;;;;;5033461;28;20205;-67
2023/01/18 12:57:35;;;;;;;1.50;1.40;;;4.60;99.90;;;;;;5032627;28;20252;-68
2023/01/18 13:00:14;;;;;;;1.08;0.98;;;4.60;99.90;;;;;;5032333;28;20237;-67
2023/01/18 13:02:44;;;;;;;1.33;1.20;;;4.50;99.90;;;;;;5013403;28;20268;-67
2023/01/18 13:05:18;;;;;;;1.55;1.20;;;4.50;99.90;;;;;;5013346;28;20207;-67
2023/01/18 13:07:50;;;;;;;1.85;1.10;;;4.50;99.90;;;;;;5013160;28;20703;-67
2023/01/18 13:10:22;;;;;;;1.75;1.20;;;4.60;99.90;;;;;;5012779;28;20371;-67
2023/01/18 13:12:52;;;;;;;1.10;1.00;;;4.50;99.90;;;;;;5013234;28;20238;-67
2023/01/18 13:15:29;;;;;;;1.67;1.42;;;4.50;99.90;;;;;;5013065;28;20731;-67
2023/01/18 13:18:05;;;;;;;1.70;1.38;;;4.50;99.90;;;;;;5012990;28;20206;-67
2023/01/18 13:20:43;;;;;;;1.83;1.20;;;4.40;99.90;;;;;;5012456;28;20761;-67
2023/01/18 13:23:27;;;;;;;1.55;1.30;;;4.30;99.90;;;;;;5013294;28;20198;-67
2023/01/18 13:26:02;;;;;;;1.55;1.10;;;4.30;99.90;;;;;;5013117;28;20607;-67
2023/01/18 13:28:30;;;;;;;2.05;1.83;;;4.30;99.90;;;;;;5016159;28;20303;-67
2023/01/18 13:31:01;;;;;;;1.88;1.20;;;4.20;99.90;;;;;;5031763;28;20241;-67
2023/01/18 13:33:32;;;;;;;1.25;0.98;;;4.20;99.90;;;;;;5032581;28;20218;-67
2023/01/18 13:36:06;;;;;;;1.65;1.10;;;4.10;99.90;;;;;;5032726;28;20568;-67
2023/01/18 13:38:39;;;;;;;1.17;1.02;;;4.10;99.90;;;;;;5032579;28;20295;-67
2023/01/18 13:41:11;;;;;;;1.15;1.05;;;4.10;99.90;;;;;;5031652;28;20251;-67
2023/01/18 13:44:00;;;;;;;3.17;1.70;;;4.10;99.90;;;;;;5032394;28;20188;-67
2023/01/18 13:46:28;;;;;;;1.13;1.00;;;4.00;99.90;;;;;;5032883;28;20196;-67
2023/01/18 13:48:58;;;;;;;1.23;1.13;;;4.00;99.90;;;;;;5032149;28;20206;-67
2023/01/18 13:51:50;;;;;;;1.92;1.63;;;4.10;99.90;;;;;;5031647;28;20695;-67
2023/01/18 13:54:59;;;;;;;2.88;1.63;;;4.20;99.90;;;;;;5032377;28;20227;-67
2023/01/18 13:57:30;;;;;;;1.70;1.13;;;4.20;99.90;;;;;;5031628;28;20301;-67